createdAt,value
2022-11-26T00:02:24.127Z,6.60
2022-11-26T00:04:56.824Z,6.58
2022-11-26T00:07:45.558Z,6.54
2022-11-26T00:10:26.410Z,6.51
2022-11-26T00:12:59.490Z,6.50
2022-11-26T00:15:33.099Z,6.46
2022-11-26T00:18:15.592Z,6.44
2022-11-26T00:20:46.334Z,6.40
2022-11-26T00:23:27.902Z,6.37
2022-11-26T00:26:09.695Z,6.34
2022-11-26T00:28:43.580Z,6.30
2022-11-26T00:31:16.788Z,6.26
2022-11-26T00:33:53.032Z,6.22
2022-11-26T00:36:43.499Z,6.18
2022-11-26T00:39:28.890Z,6.13
2022-11-26T00:41:58.377Z,6.10
2022-11-26T00:44:30.468Z,6.08
2022-11-26T00:47:00.375Z,6.05
2022-11-26T00:49:30.355Z,6.04
2022-11-26T00:51:59.485Z,5.99
2022-11-26T00:54:30.103Z,5.97
2022-11-26T00:57:02.322Z,5.94
2022-11-26T00:59:33.970Z,5.91
2022-11-26T01:02:07.717Z,5.87
2022-11-26T01:04:42.965Z,5.84
2022-11-26T01:07:13.163Z,5.81
2022-11-26T01:09:45.463Z,5.79
2022-11-26T01:12:15.422Z,5.80
2022-11-26T01:14:45.977Z,5.79
2022-11-26T01:17:19.248Z,5.78
2022-11-26T01:19:54.834Z,5.79
2022-11-26T01:22:29.142Z,5.78
2022-11-26T01:25:01.676Z,5.78
2022-11-26T01:27:34.741Z,5.76
2022-11-26T01:30:15.893Z,5.75
2022-11-26T01:32:52.134Z,5.75
2022-11-26T01:35:29.228Z,5.75
2022-11-26T01:38:07.960Z,5.76
2022-11-26T01:40:53.529Z,5.75
2022-11-26T01:43:31.173Z,5.75
2022-11-26T01:46:19.200Z,5.77
2022-11-26T01:48:53.462Z,5.77
2022-11-26T01:51:28.546Z,5.77
2022-11-26T01:54:08.755Z,5.76
2022-11-26T01:56:48.929Z,5.77
2022-11-26T01:59:25.922Z,5.76
2022-11-26T02:02:00.922Z,5.73
2022-11-26T02:04:43.094Z,5.72
2022-11-26T02:07:12.123Z,5.71
2022-11-26T02:09:44.613Z,5.69
2022-11-26T02:12:21.542Z,5.67
2022-11-26T02:14:57.745Z,5.66
2022-11-26T02:17:38.782Z,5.64
2022-11-26T02:20:34.648Z,5.61
2022-11-26T02:23:40.253Z,5.59
2022-11-26T02:26:49.945Z,5.57
2022-11-26T02:29:32.256Z,5.53
2022-11-26T02:32:15.164Z,5.50
2022-11-26T02:34:57.035Z,5.48
2022-11-26T02:37:30.362Z,5.45
2022-11-26T02:40:00.111Z,5.41
2022-11-26T02:42:39.988Z,5.41
2022-11-26T02:45:16.078Z,5.43
2022-11-26T02:47:55.699Z,5.46
2022-11-26T02:50:31.245Z,5.46
2022-11-26T02:53:03.455Z,5.46
2022-11-26T02:55:47.595Z,5.43
2022-11-26T02:58:21.737Z,5.40
2022-11-26T03:00:52.911Z,5.38
2022-11-26T03:03:43.686Z,5.35
2022-11-26T03:06:18.556Z,5.33
2022-11-26T03:08:54.612Z,5.31
2022-11-26T03:11:27.863Z,5.31
2022-11-26T03:14:15.367Z,5.27
2022-11-26T03:16:48.614Z,5.26
2022-11-26T03:19:22.707Z,5.22
2022-11-26T03:21:59.310Z,5.19
2022-11-26T03:24:40.426Z,5.16
2022-11-26T03:27:10.895Z,5.14
2022-11-26T03:29:49.912Z,5.11
2022-11-26T03:32:26.207Z,5.08
2022-11-26T03:35:03.622Z,5.03
2022-11-26T03:37:43.184Z,5.01
2022-11-26T03:40:21.488Z,5.00
2022-11-26T03:42:58.420Z,4.97
2022-11-26T03:45:39.846Z,4.95
2022-11-26T03:48:24.271Z,4.92
2022-11-26T03:50:59.642Z,4.91
2022-11-26T03:53:41.266Z,4.87
2022-11-26T03:56:12.030Z,4.84
2022-11-26T03:58:44.771Z,4.83
2022-11-26T04:01:14.557Z,4.80
2022-11-26T04:03:46.466Z,4.78
2022-11-26T04:06:25.411Z,4.76
2022-11-26T04:09:10.852Z,4.76
2022-11-26T04:11:45.671Z,4.74
2022-11-26T04:14:16.036Z,4.73
2022-11-26T04:16:59.829Z,4.74
2022-11-26T04:19:33.837Z,4.72
2022-11-26T04:22:21.502Z,4.71
2022-11-26T04:25:17.473Z,4.71
2022-11-26T04:28:10.219Z,4.69
2022-11-26T04:30:49.853Z,4.67
2022-11-26T04:33:23.831Z,4.66
2022-11-26T04:35:53.155Z,4.65
2022-11-26T04:38:29.935Z,4.65
2022-11-26T04:41:10.811Z,4.64
2022-11-26T04:43:41.388Z,4.64
2022-11-26T04:46:11.695Z,4.63
2022-11-26T04:48:45.370Z,4.63
2022-11-26T04:51:16.479Z,4.63
2022-11-26T04:56:47.344Z,4.63
2022-11-26T04:59:20.154Z,4.64
2022-11-26T05:02:00.315Z,4.63
2022-11-26T05:04:36.338Z,4.63
2022-11-26T05:07:14.784Z,4.63
2022-11-26T05:09:57.380Z,4.62
2022-11-26T05:12:30.551Z,4.61
2022-11-26T05:15:01.115Z,4.61
2022-11-26T05:17:40.081Z,4.61
2022-11-26T05:20:21.120Z,4.59
2022-11-26T05:22:57.044Z,4.57
2022-11-26T05:25:42.023Z,4.56
2022-11-26T05:28:14.355Z,4.54
2022-11-26T05:30:44.272Z,4.53
2022-11-26T05:33:16.257Z,4.53
2022-11-26T05:35:50.170Z,4.52
2022-11-26T05:38:23.341Z,4.52
2022-11-26T05:40:55.654Z,4.51
2022-11-26T05:43:32.878Z,4.52
2022-11-26T05:46:12.253Z,4.52
2022-11-26T05:48:48.334Z,4.53
2022-11-26T05:51:19.373Z,4.53
2022-11-26T05:53:52.838Z,4.55
2022-11-26T05:56:29.258Z,4.57
2022-11-26T05:58:59.340Z,4.58
2022-11-26T06:01:32.563Z,4.59
2022-11-26T06:04:06.987Z,4.60
2022-11-26T06:06:37.122Z,4.61
2022-11-26T06:09:10.763Z,4.61
2022-11-26T06:11:44.413Z,4.61
2022-11-26T06:14:14.739Z,4.61
2022-11-26T06:16:45.176Z,4.62
2022-11-26T06:19:17.234Z,4.61
2022-11-26T06:21:47.443Z,4.61
2022-11-26T06:24:19.522Z,4.59
2022-11-26T06:26:55.278Z,4.59
2022-11-26T06:29:31.329Z,4.58
2022-11-26T06:32:04.417Z,4.58
2022-11-26T06:34:34.609Z,4.58
2022-11-26T06:37:04.284Z,4.58
2022-11-26T06:39:33.062Z,4.58
2022-11-26T06:42:05.994Z,4.57
2022-11-26T06:44:39.698Z,4.57
2022-11-26T06:47:14.984Z,4.53
2022-11-26T06:49:43.545Z,4.53
2022-11-26T06:52:17.184Z,4.52
2022-11-26T06:54:46.462Z,4.50
2022-11-26T06:57:22.785Z,4.49
2022-11-26T06:59:54.649Z,4.49
2022-11-26T07:02:23.441Z,4.48
2022-11-26T07:04:52.567Z,4.47
2022-11-26T07:07:21.438Z,4.45
2022-11-26T07:09:51.378Z,4.45
2022-11-26T07:12:22.402Z,4.45
2022-11-26T07:14:51.286Z,4.44
2022-11-26T07:17:19.904Z,4.46
2022-11-26T07:19:49.038Z,4.48
2022-11-26T07:22:18.225Z,4.48
2022-11-26T07:24:48.625Z,4.47
2022-11-26T07:27:22.951Z,4.49
2022-11-26T07:29:56.739Z,4.48
2022-11-26T07:32:26.757Z,4.50
2022-11-26T07:34:56.133Z,4.49
2022-11-26T07:37:27.216Z,4.50
2022-11-26T07:39:58.277Z,4.52
2022-11-26T07:42:32.914Z,4.54
2022-11-26T07:45:04.686Z,4.55
2022-11-26T07:47:38.872Z,4.59
2022-11-26T07:50:09.913Z,4.62
2022-11-26T07:52:39.319Z,4.64
2022-11-26T07:55:16.223Z,4.66
2022-11-26T07:57:46.721Z,4.69
2022-11-26T08:00:21.631Z,4.73
2022-11-26T08:02:51.434Z,4.78
2022-11-26T08:05:21.259Z,4.82
2022-11-26T08:07:51.199Z,4.87
2022-11-26T08:10:20.630Z,4.92
2022-11-26T08:12:53.002Z,4.97
2022-11-26T08:15:22.515Z,5.01
2022-11-26T08:17:54.686Z,5.05
2022-11-26T08:20:29.058Z,5.09
2022-11-26T08:22:58.631Z,5.13
2022-11-26T08:25:31.530Z,5.17
2022-11-26T08:28:06.591Z,5.21
2022-11-26T08:30:38.153Z,5.25
2022-11-26T08:33:12.002Z,5.28
2022-11-26T08:36:05.405Z,5.31
2022-11-26T08:38:31.515Z,5.36
2022-11-26T08:41:02.279Z,5.39
2022-11-26T08:43:58.682Z,5.43
2022-11-26T08:46:22.949Z,5.47
2022-11-26T08:48:54.784Z,5.51
2022-11-26T08:51:26.107Z,5.54
2022-11-26T08:53:57.299Z,5.58
2022-11-26T08:56:27.173Z,5.62
2022-11-26T08:59:01.945Z,5.67
2022-11-26T09:01:38.549Z,5.72
2022-11-26T09:04:10.232Z,5.77
2022-11-26T09:06:41.473Z,5.82
2022-11-26T09:09:17.994Z,5.86
2022-11-26T09:11:52.631Z,5.93
2022-11-26T09:14:27.238Z,5.99
2022-11-26T09:16:58.811Z,6.06
2022-11-26T09:19:28.887Z,6.11
2022-11-26T09:21:59.339Z,6.14
2022-11-26T09:24:31.049Z,6.19
2022-11-26T09:27:07.263Z,6.25
2022-11-26T09:29:38.762Z,6.28
2022-11-26T09:32:31.217Z,6.33
2022-11-26T09:35:02.095Z,6.38
2022-11-26T09:37:35.097Z,6.42
2022-11-26T09:40:04.066Z,6.47
2022-11-26T09:42:54.677Z,6.53
2022-11-26T09:45:36.093Z,6.59
2022-11-26T09:48:07.530Z,6.64
2022-11-26T09:50:41.167Z,6.69
2022-11-26T09:53:17.499Z,6.73
2022-11-26T09:55:51.539Z,6.78
2022-11-26T09:58:27.211Z,6.82
2022-11-26T10:01:05.849Z,6.86
2022-11-26T10:03:37.359Z,6.90
2022-11-26T10:06:10.524Z,6.96
2022-11-26T10:09:17.298Z,7.00
2022-11-26T10:12:06.395Z,7.05
2022-11-26T10:14:51.793Z,7.11
2022-11-26T10:17:37.373Z,7.17
2022-11-26T10:20:42.548Z,7.25
2022-11-26T10:23:21.537Z,7.32
2022-11-26T10:25:58.360Z,7.39
2022-11-26T10:28:35.343Z,7.43
2022-11-26T10:31:06.879Z,7.48
2022-11-26T10:33:41.446Z,7.52
2022-11-26T10:36:23.044Z,7.57
2022-11-26T10:38:52.077Z,7.62
2022-11-26T10:41:23.865Z,7.65
2022-11-26T10:43:53.888Z,7.70
2022-11-26T10:46:34.946Z,7.76
2022-11-26T10:49:23.818Z,7.83
2022-11-26T10:51:57.891Z,7.91
2022-11-26T10:54:40.824Z,7.97
2022-11-26T10:57:18.083Z,8.04
2022-11-26T10:59:52.749Z,8.10
2022-11-26T11:02:41.981Z,8.15
2022-11-26T11:05:12.688Z,8.22
2022-11-26T11:07:44.203Z,8.28
2022-11-26T11:10:18.230Z,8.33
2022-11-26T11:12:53.551Z,8.38
2022-11-26T11:15:34.042Z,8.42
2022-11-26T11:18:06.251Z,8.46
2022-11-26T11:20:40.037Z,8.51
2022-11-26T11:23:40.060Z,8.57
2022-11-26T11:26:22.339Z,8.62
2022-11-26T11:28:54.309Z,8.66
2022-11-26T11:31:29.945Z,8.69
2022-11-26T11:34:20.260Z,8.73
2022-11-26T11:37:04.995Z,8.78
2022-11-26T11:39:38.808Z,8.82
2022-11-26T11:42:19.424Z,8.83
2022-11-26T11:44:50.296Z,8.85
2022-11-26T11:47:36.001Z,8.87
2022-11-26T11:50:21.785Z,8.89
2022-11-26T11:53:06.816Z,8.93
2022-11-26T11:55:52.119Z,8.95
2022-11-26T11:58:41.245Z,8.99
2022-11-26T12:01:28.128Z,9.02
2022-11-26T12:04:28.012Z,9.03
2022-11-26T12:07:23.797Z,9.05
2022-11-26T12:10:02.991Z,9.07
2022-11-26T12:12:39.269Z,9.10
2022-11-26T12:15:13.824Z,9.12
2022-11-26T12:17:48.927Z,9.13
2022-11-26T12:20:24.798Z,9.15
2022-11-26T12:23:12.972Z,9.16
2022-11-26T12:25:48.713Z,9.17
2022-11-26T12:28:24.396Z,9.18
2022-11-26T12:30:59.703Z,9.21
2022-11-26T12:33:34.533Z,9.23
2022-11-26T12:36:15.771Z,9.24
2022-11-26T12:38:53.397Z,9.27
2022-11-26T12:41:33.469Z,9.29
2022-11-26T12:44:09.506Z,9.31
2022-11-26T12:46:47.530Z,9.33
2022-11-26T12:49:30.993Z,9.35
2022-11-26T12:52:23.211Z,9.37
2022-11-26T12:55:01.853Z,9.37
2022-11-26T12:57:38.156Z,9.37
2022-11-26T13:00:12.940Z,9.39
2022-11-26T13:02:48.311Z,9.40
2022-11-26T13:05:23.495Z,9.39
2022-11-26T13:08:14.473Z,9.40
2022-11-26T13:11:10.879Z,9.41
2022-11-26T13:13:48.126Z,9.40
2022-11-26T13:16:27.277Z,9.41
2022-11-26T13:19:06.607Z,9.41
2022-11-26T13:21:59.267Z,9.41
2022-11-26T13:24:45.913Z,9.40
2022-11-26T13:27:38.216Z,9.41
2022-11-26T13:30:22.321Z,9.42
2022-11-26T13:33:22.514Z,9.44
2022-11-26T13:36:17.937Z,9.44
2022-11-26T13:38:56.441Z,9.43
2022-11-26T13:41:54.453Z,9.45
2022-11-26T13:44:55.927Z,9.46
2022-11-26T13:47:31.925Z,9.46
2022-11-26T13:50:08.379Z,9.47
2022-11-26T13:52:43.654Z,9.50
2022-11-26T13:55:23.861Z,9.50
2022-11-26T13:57:56.700Z,9.53
2022-11-26T14:00:29.057Z,9.57
2022-11-26T14:02:59.418Z,9.59
2022-11-26T14:06:13.008Z,9.62
2022-11-26T14:08:49.070Z,9.66
2022-11-26T14:12:00.531Z,9.68
2022-11-26T14:14:37.399Z,9.71
2022-11-26T14:17:24.195Z,9.74
2022-11-26T14:20:13.359Z,9.75
2022-11-26T14:22:52.271Z,9.75
2022-11-26T14:25:43.066Z,9.72
2022-11-26T14:28:16.232Z,9.69
2022-11-26T14:30:45.455Z,9.66
2022-11-26T14:33:20.294Z,9.64
2022-11-26T14:36:02.653Z,9.60
2022-11-26T14:38:35.432Z,9.55
2022-11-26T14:41:06.455Z,9.52
2022-11-26T14:43:41.921Z,9.48
2022-11-26T14:46:17.888Z,9.43
2022-11-26T14:48:51.644Z,9.40
2022-11-26T14:51:27.512Z,9.36
2022-11-26T14:54:02.056Z,9.31
2022-11-26T14:56:35.431Z,9.27
2022-11-26T14:59:06.505Z,9.24
2022-11-26T15:01:43.037Z,9.20
2022-11-26T15:04:27.662Z,9.17
2022-11-26T15:06:59.432Z,9.12
2022-11-26T15:09:29.955Z,9.10
2022-11-26T15:12:06.293Z,9.06
2022-11-26T15:14:47.254Z,9.03
2022-11-26T15:17:23.086Z,9.00
2022-11-26T15:19:58.812Z,8.97
2022-11-26T15:22:37.702Z,8.94
2022-11-26T15:25:17.030Z,8.91
2022-11-26T15:28:00.660Z,8.88
2022-11-26T15:30:31.634Z,8.85
2022-11-26T15:33:06.097Z,8.83
2022-11-26T15:35:36.424Z,8.80
2022-11-26T15:38:14.250Z,8.77
2022-11-26T15:40:48.274Z,8.75
2022-11-26T15:43:28.572Z,8.73
2022-11-26T15:46:07.423Z,8.71
2022-11-26T15:48:52.408Z,8.69
2022-11-26T15:51:36.124Z,8.65
2022-11-26T15:54:34.107Z,8.63
2022-11-26T15:57:31.314Z,8.60
2022-11-26T16:00:13.474Z,8.59
2022-11-26T16:02:46.912Z,8.57
2022-11-26T16:05:25.412Z,8.53
2022-11-26T16:07:59.211Z,8.49
2022-11-26T16:10:41.284Z,8.47
2022-11-26T16:13:36.911Z,8.43
2022-11-26T16:16:20.643Z,8.41
2022-11-26T16:18:59.444Z,8.40
2022-11-26T16:21:32.779Z,8.36
2022-11-26T16:24:40.836Z,8.35
2022-11-26T16:30:25.177Z,8.29
2022-11-26T16:32:57.560Z,8.27
2022-11-26T16:35:45.176Z,8.24
2022-11-26T16:38:29.455Z,8.23
2022-11-26T16:41:05.037Z,8.22
2022-11-26T16:43:52.604Z,8.19
2022-11-26T16:46:44.207Z,8.16
2022-11-26T16:49:18.925Z,8.14
2022-11-26T16:51:51.517Z,8.12
2022-11-26T16:54:45.576Z,8.11
2022-11-26T16:57:20.621Z,8.08
2022-11-26T16:59:53.711Z,8.07
2022-11-26T17:02:33.209Z,8.04
2022-11-26T17:05:05.792Z,8.02
2022-11-26T17:07:46.855Z,7.99
2022-11-26T17:10:25.327Z,7.98
2022-11-26T17:13:01.975Z,7.94
2022-11-26T17:15:43.339Z,7.93
2022-11-26T17:18:22.398Z,7.91
2022-11-26T17:20:58.748Z,7.89
2022-11-26T17:23:32.854Z,7.87
2022-11-26T17:26:09.121Z,7.86
2022-11-26T17:28:43.890Z,7.83
2022-11-26T17:31:18.236Z,7.80
2022-11-26T17:33:53.815Z,7.78
2022-11-26T17:36:25.461Z,7.77
2022-11-26T17:39:02.133Z,7.75
2022-11-26T17:41:31.121Z,7.73
2022-11-26T17:44:08.728Z,7.71
2022-11-26T17:46:54.450Z,7.69
2022-11-26T17:49:42.250Z,7.68
2022-11-26T17:52:17.777Z,7.65
2022-11-26T17:54:57.266Z,7.63
2022-11-26T17:57:28.892Z,7.61
2022-11-26T17:59:59.729Z,7.57
2022-11-26T18:02:37.100Z,7.56
2022-11-26T18:05:08.472Z,7.54
2022-11-26T18:07:39.797Z,7.52
2022-11-26T18:10:15.523Z,7.49
2022-11-26T18:12:49.703Z,7.47
2022-11-26T18:15:28.893Z,7.46
2022-11-26T18:18:02.426Z,7.44
2022-11-26T18:20:35.641Z,7.41
2022-11-26T18:23:07.045Z,7.40
2022-11-26T18:25:46.338Z,7.38
2022-11-26T18:28:16.344Z,7.37
2022-11-26T18:30:52.019Z,7.37
2022-11-26T18:33:24.292Z,7.34
2022-11-26T18:36:01.207Z,7.33
2022-11-26T18:38:33.656Z,7.32
2022-11-26T18:41:06.908Z,7.29
2022-11-26T18:43:40.422Z,7.28
2022-11-26T18:46:17.242Z,7.26
2022-11-26T18:48:52.340Z,7.24
2022-11-26T18:51:35.790Z,7.23
2022-11-26T18:54:16.977Z,7.20
2022-11-26T18:56:53.131Z,7.18
2022-11-26T18:59:29.968Z,7.16
2022-11-26T19:02:09.673Z,7.15
2022-11-26T19:04:42.551Z,7.13
2022-11-26T19:07:15.856Z,7.11
2022-11-26T19:09:45.683Z,7.10
2022-11-26T19:12:16.104Z,7.08
2022-11-26T19:14:51.300Z,7.07
2022-11-26T19:17:23.093Z,7.06
2022-11-26T19:20:02.560Z,7.04
2022-11-26T19:22:41.006Z,7.03
2022-11-26T19:25:22.228Z,7.02
2022-11-26T19:28:07.615Z,7.01
2022-11-26T19:30:43.251Z,6.98
2022-11-26T19:33:24.174Z,6.96
2022-11-26T19:36:01.546Z,6.95
2022-11-26T19:38:41.129Z,6.92
2022-11-26T19:41:24.062Z,6.90
2022-11-26T19:44:06.144Z,6.90
2022-11-26T19:46:49.764Z,6.87
2022-11-26T19:49:42.657Z,6.86
2022-11-26T19:52:15.824Z,6.85
2022-11-26T19:54:52.975Z,6.83
2022-11-26T19:57:23.230Z,6.81
2022-11-26T19:59:55.532Z,6.79
2022-11-26T20:02:33.928Z,6.78
2022-11-26T20:05:07.483Z,6.75
2022-11-26T20:07:41.101Z,6.74
2022-11-26T20:10:17.508Z,6.72
2022-11-26T20:12:57.285Z,6.70
2022-11-26T20:15:29.238Z,6.70
2022-11-26T20:18:02.010Z,6.68
2022-11-26T20:20:39.540Z,6.65
2022-11-26T20:23:11.902Z,6.64
2022-11-26T20:25:46.931Z,6.62
2022-11-26T20:28:23.220Z,6.61
2022-11-26T20:30:58.323Z,6.57
2022-11-26T20:33:34.047Z,6.57
2022-11-26T20:36:14.021Z,6.56
2022-11-26T20:38:50.512Z,6.53
2022-11-26T20:41:28.381Z,6.52
2022-11-26T20:44:03.351Z,6.50
2022-11-26T20:46:45.608Z,6.48
2022-11-26T20:49:20.117Z,6.46
2022-11-26T20:51:58.837Z,6.46
2022-11-26T20:54:32.867Z,6.44
2022-11-26T20:57:06.410Z,6.44
2022-11-26T20:59:40.855Z,6.42
2022-11-26T21:02:16.993Z,6.42
2022-11-26T21:04:53.330Z,6.40
2022-11-26T21:07:30.338Z,6.38
2022-11-26T21:10:09.969Z,6.37
2022-11-26T21:12:44.980Z,6.36
2022-11-26T21:15:22.680Z,6.36
2022-11-26T21:18:00.247Z,6.35
2022-11-26T21:20:45.465Z,6.34
2022-11-26T21:23:19.972Z,6.32
2022-11-26T21:26:06.214Z,6.33
2022-11-26T21:28:51.287Z,6.33
2022-11-26T21:31:22.312Z,6.32
2022-11-26T21:34:05.067Z,6.32
2022-11-26T21:36:46.306Z,6.32
2022-11-26T21:39:20.653Z,6.34
2022-11-26T21:41:54.296Z,6.33
2022-11-26T21:44:34.384Z,6.35
2022-11-26T21:47:14.780Z,6.34
2022-11-26T21:49:50.317Z,6.35
2022-11-26T21:52:29.697Z,6.36
2022-11-26T21:55:09.090Z,6.36
2022-11-26T21:57:40.251Z,6.36
2022-11-26T22:00:20.057Z,6.38
2022-11-26T22:02:50.524Z,6.38
2022-11-26T22:05:24.899Z,6.38
2022-11-26T22:08:02.774Z,6.38
2022-11-26T22:10:36.452Z,6.40
2022-11-26T22:13:10.275Z,6.39
2022-11-26T22:15:46.121Z,6.40
2022-11-26T22:18:21.918Z,6.39
2022-11-26T22:20:53.802Z,6.41
2022-11-26T22:23:27.079Z,6.41
2022-11-26T22:26:00.854Z,6.40
2022-11-26T22:28:45.992Z,6.40
2022-11-26T22:31:21.977Z,6.41
2022-11-26T22:34:01.302Z,6.39
2022-11-26T22:36:39.675Z,6.39
2022-11-26T22:39:17.106Z,6.38
2022-11-26T22:41:51.852Z,6.39
2022-11-26T22:44:39.066Z,6.36
2022-11-26T22:47:13.749Z,6.35
2022-11-26T22:49:49.039Z,6.34
2022-11-26T22:52:19.662Z,6.33
2022-11-26T22:54:54.617Z,6.31
2022-11-26T22:57:32.214Z,6.29
2022-11-26T23:00:16.423Z,6.28
2022-11-26T23:02:49.993Z,6.25
2022-11-26T23:05:32.434Z,6.24
2022-11-26T23:08:09.240Z,6.22
2022-11-26T23:10:45.329Z,6.20
2022-11-26T23:13:18.170Z,6.18
2022-11-26T23:15:50.276Z,6.18
2022-11-26T23:18:25.091Z,6.16
2022-11-26T23:21:13.996Z,6.15
2022-11-26T23:23:49.683Z,6.12
2022-11-26T23:26:27.493Z,6.12
2022-11-26T23:29:14.697Z,6.11
2022-11-26T23:31:57.453Z,6.10
2022-11-26T23:34:32.396Z,6.08
2022-11-26T23:37:10.178Z,6.07
2022-11-26T23:39:44.064Z,6.08
2022-11-26T23:42:20.507Z,6.04
2022-11-26T23:44:49.223Z,6.04
2022-11-26T23:47:27.353Z,6.03
2022-11-26T23:50:01.475Z,6.02
2022-11-26T23:52:34.460Z,6.01
2022-11-26T23:55:12.199Z,5.98
2022-11-26T23:57:47.359Z,5.97
